createdAt,value
2023-05-19T00:01:18.555Z,3.47
2023-05-19T00:03:21.871Z,3.60
2023-05-19T00:05:24.980Z,4.00
2023-05-19T00:07:31.178Z,3.50
2023-05-19T00:09:33.482Z,3.50
2023-05-19T00:11:36.746Z,3.83
2023-05-19T00:13:39.252Z,4.00
2023-05-19T00:15:41.705Z,4.43
2023-05-19T00:17:43.759Z,4.57
2023-05-19T00:19:45.982Z,4.30
2023-05-19T00:21:48.220Z,4.60
2023-05-19T00:23:50.562Z,4.10
2023-05-19T00:25:54.095Z,4.30
2023-05-19T00:27:56.126Z,4.30
2023-05-19T00:29:58.162Z,4.40
2023-05-19T00:32:00.318Z,3.90
2023-05-19T00:34:02.457Z,4.30
2023-05-19T00:36:05.828Z,4.30
2023-05-19T00:38:08.028Z,4.10
2023-05-19T00:40:10.801Z,3.90
2023-05-19T00:42:12.885Z,3.90
2023-05-19T00:44:15.036Z,4.50
2023-05-19T00:46:17.168Z,3.77
2023-05-19T00:48:19.478Z,4.27
2023-05-19T00:50:24.353Z,2.80
2023-05-19T00:52:27.464Z,3.40
2023-05-19T00:54:29.592Z,3.50
2023-05-19T00:56:31.883Z,3.70
2023-05-19T00:58:36.478Z,3.47
2023-05-19T01:00:39.877Z,4.03
2023-05-19T01:02:43.168Z,4.13
2023-05-19T01:04:45.477Z,3.70
2023-05-19T01:06:49.708Z,4.00
2023-05-19T01:08:51.884Z,3.93
2023-05-19T01:10:54.198Z,3.80
2023-05-19T01:12:56.277Z,3.90
2023-05-19T01:14:58.863Z,3.60
2023-05-19T01:17:08.214Z,4.00
2023-05-19T01:20:02.254Z,3.97
2023-05-19T01:22:23.691Z,3.47
2023-05-19T01:24:59.697Z,3.77
2023-05-19T01:27:29.916Z,4.43
2023-05-19T01:29:41.042Z,3.83
2023-05-19T01:31:47.150Z,3.93
2023-05-19T01:33:49.809Z,3.90
2023-05-19T01:35:53.618Z,3.80
2023-05-19T01:37:58.332Z,3.60
2023-05-19T01:40:01.189Z,3.93
2023-05-19T01:42:04.512Z,5.20
2023-05-19T01:44:06.693Z,3.60
2023-05-19T01:46:09.272Z,3.77
2023-05-19T01:48:12.747Z,3.70
2023-05-19T01:50:15.438Z,4.00
2023-05-19T01:52:18.293Z,3.70
2023-05-19T01:54:20.283Z,3.93
2023-05-19T01:56:39.341Z,4.10
2023-05-19T01:58:46.776Z,3.97
2023-05-19T02:01:27.677Z,4.13
2023-05-19T02:04:07.985Z,3.80
2023-05-19T02:06:35.644Z,3.73
2023-05-19T02:08:52.156Z,4.13
2023-05-19T02:10:59.898Z,4.17
2023-05-19T02:13:05.030Z,4.30
2023-05-19T02:15:17.833Z,4.20
2023-05-19T02:17:21.044Z,4.17
2023-05-19T02:19:34.358Z,4.03
2023-05-19T02:21:36.858Z,3.80
2023-05-19T02:23:41.161Z,3.50
2023-05-19T02:25:43.563Z,3.70
2023-05-19T02:27:45.839Z,3.83
2023-05-19T02:29:47.861Z,3.90
2023-05-19T02:31:50.291Z,3.80
2023-05-19T02:33:52.348Z,3.93
2023-05-19T02:35:56.263Z,4.30
2023-05-19T02:37:58.978Z,3.83
2023-05-19T02:40:00.983Z,3.50
2023-05-19T02:42:03.351Z,3.70
2023-05-19T02:44:05.687Z,3.50
2023-05-19T02:46:07.895Z,3.60
2023-05-19T02:48:10.997Z,4.30
2023-05-19T02:50:14.954Z,3.77
2023-05-19T02:52:17.285Z,3.43
2023-05-19T02:54:19.644Z,3.90
2023-05-19T02:56:21.885Z,3.43
2023-05-19T02:58:24.167Z,4.10
2023-05-19T03:00:26.213Z,3.93
2023-05-19T03:02:28.408Z,3.63
2023-05-19T03:04:30.756Z,4.57
2023-05-19T03:06:32.941Z,3.60
2023-05-19T03:08:36.433Z,3.77
2023-05-19T03:10:38.552Z,3.43
2023-05-19T03:12:40.757Z,3.80
2023-05-19T03:14:44.298Z,3.47
2023-05-19T03:16:46.457Z,3.77
2023-05-19T03:18:48.762Z,3.20
2023-05-19T03:20:51.253Z,2.97
2023-05-19T03:22:53.318Z,3.90
2023-05-19T03:24:55.944Z,4.00
2023-05-19T03:26:58.190Z,3.30
2023-05-19T03:29:01.046Z,3.93
2023-05-19T03:31:04.988Z,3.50
2023-05-19T03:33:12.606Z,3.80
2023-05-19T03:35:15.615Z,3.53
2023-05-19T03:37:17.797Z,3.27
2023-05-19T03:39:20.444Z,3.70
2023-05-19T03:41:23.918Z,3.80
2023-05-19T03:43:26.219Z,4.03
2023-05-19T03:45:32.945Z,3.67
2023-05-19T03:47:35.722Z,4.00
2023-05-19T03:50:01.327Z,3.87
2023-05-19T03:52:22.143Z,3.60
2023-05-19T03:54:32.669Z,3.27
2023-05-19T03:56:39.516Z,3.63
2023-05-19T03:58:44.457Z,3.77
2023-05-19T04:00:46.799Z,3.90
2023-05-19T04:02:49.782Z,3.60
2023-05-19T04:04:52.008Z,3.13
2023-05-19T04:06:54.172Z,3.60
2023-05-19T04:08:56.217Z,3.67
2023-05-19T04:10:58.212Z,3.37
2023-05-19T04:13:00.634Z,3.90
2023-05-19T04:15:02.742Z,4.07
2023-05-19T04:17:05.519Z,3.40
2023-05-19T04:19:08.705Z,4.30
2023-05-19T04:21:11.048Z,4.00
2023-05-19T04:23:13.629Z,3.73
2023-05-19T04:25:15.743Z,3.70
2023-05-19T04:27:18.297Z,3.67
2023-05-19T04:29:20.630Z,3.20
2023-05-19T04:31:22.917Z,3.33
2023-05-19T04:33:25.266Z,3.57
2023-05-19T04:35:27.674Z,3.10
2023-05-19T04:37:30.041Z,3.30
2023-05-19T04:39:33.495Z,3.10
2023-05-19T04:41:35.746Z,4.00
2023-05-19T04:43:42.000Z,3.40
2023-05-19T04:45:44.577Z,3.33
2023-05-19T04:47:48.290Z,3.20
2023-05-19T04:49:55.489Z,3.50
2023-05-19T04:51:57.886Z,3.23
2023-05-19T04:54:04.061Z,3.83
2023-05-19T04:56:06.455Z,3.57
2023-05-19T04:58:08.737Z,3.60
2023-05-19T05:00:13.987Z,3.50
2023-05-19T05:02:29.967Z,3.97
2023-05-19T05:04:32.674Z,3.13
2023-05-19T05:06:34.762Z,3.27
2023-05-19T05:08:40.049Z,3.10
2023-05-19T05:10:42.475Z,3.00
2023-05-19T05:12:44.992Z,2.60
2023-05-19T05:14:47.308Z,2.73
2023-05-19T05:16:50.095Z,3.30
2023-05-19T05:18:57.784Z,2.90
2023-05-19T05:21:01.060Z,3.30
2023-05-19T05:23:04.274Z,3.00
2023-05-19T05:25:08.929Z,2.73
2023-05-19T05:27:11.604Z,2.73
2023-05-19T05:29:13.753Z,2.70
2023-05-19T05:31:16.282Z,2.50
2023-05-19T05:33:19.757Z,2.10
2023-05-19T05:35:24.028Z,2.67
2023-05-19T05:37:26.296Z,2.80
2023-05-19T05:39:28.838Z,3.17
2023-05-19T05:41:35.227Z,3.03
2023-05-19T05:43:41.858Z,2.70
2023-05-19T05:45:44.044Z,2.67
2023-05-19T05:47:46.531Z,3.20
2023-05-19T05:49:49.633Z,3.30
2023-05-19T05:52:05.161Z,3.10
2023-05-19T05:54:13.862Z,3.40
2023-05-19T05:56:21.705Z,3.30
2023-05-19T05:58:28.634Z,3.20
2023-05-19T06:00:30.917Z,3.57
2023-05-19T06:02:33.162Z,3.27
2023-05-19T06:04:35.345Z,3.10
2023-05-19T06:06:38.161Z,3.10
2023-05-19T06:08:41.151Z,3.30
2023-05-19T06:10:45.799Z,2.47
2023-05-19T06:12:49.476Z,3.53
2023-05-19T06:14:52.090Z,2.93
2023-05-19T06:17:14.467Z,2.77
2023-05-19T06:19:16.693Z,3.30
2023-05-19T06:21:19.401Z,3.53
2023-05-19T06:23:21.788Z,3.07
2023-05-19T06:25:24.743Z,3.00
2023-05-19T06:27:27.096Z,2.90
2023-05-19T06:29:29.224Z,3.30
2023-05-19T06:31:35.683Z,2.83
2023-05-19T06:33:46.571Z,2.93
2023-05-19T06:35:48.646Z,3.10
2023-05-19T06:37:51.055Z,10.43
2023-05-19T06:39:53.910Z,3.10
2023-05-19T06:41:56.052Z,9.50
2023-05-19T06:44:27.408Z,3.50
2023-05-19T06:46:29.997Z,4.83
2023-05-19T06:48:32.150Z,4.20
2023-05-19T06:50:34.905Z,2.83
2023-05-19T06:52:38.274Z,3.30
2023-05-19T06:54:41.077Z,7.73
2023-05-19T06:56:45.249Z,5.93
2023-05-19T06:58:48.611Z,6.10
2023-05-19T07:00:51.192Z,3.73
2023-05-19T07:02:53.468Z,3.40
2023-05-19T07:04:57.586Z,3.40
2023-05-19T07:07:00.906Z,3.30
2023-05-19T07:09:05.621Z,3.53
2023-05-19T07:11:08.401Z,3.33
2023-05-19T07:13:10.839Z,3.40
2023-05-19T07:15:13.033Z,3.13
2023-05-19T07:17:15.849Z,3.43
2023-05-19T07:19:20.142Z,3.13
2023-05-19T07:21:22.394Z,2.40
2023-05-19T07:23:25.358Z,3.23
2023-05-19T07:25:29.044Z,3.17
2023-05-19T07:27:31.202Z,3.63
2023-05-19T07:29:34.081Z,4.13
2023-05-19T07:31:36.259Z,3.87
2023-05-19T07:33:38.449Z,3.30
2023-05-19T07:35:40.570Z,3.67
2023-05-19T07:37:43.085Z,3.27
2023-05-19T07:39:45.185Z,2.70
2023-05-19T07:41:52.773Z,2.70
2023-05-19T07:43:54.872Z,2.97
2023-05-19T07:45:57.075Z,3.20
2023-05-19T07:47:59.264Z,3.30
2023-05-19T07:50:01.336Z,3.00
2023-05-19T07:52:03.598Z,3.10
2023-05-19T07:54:05.728Z,3.30
2023-05-19T07:56:07.926Z,2.47
2023-05-19T07:58:10.483Z,2.50
2023-05-19T08:00:13.458Z,2.57
2023-05-19T08:02:16.308Z,2.60
2023-05-19T08:04:18.455Z,2.30
2023-05-19T08:06:21.262Z,2.80
2023-05-19T08:08:23.420Z,2.90
2023-05-19T08:10:25.619Z,2.77
2023-05-19T08:12:28.761Z,2.80
2023-05-19T08:14:31.313Z,3.00
2023-05-19T08:16:33.550Z,2.50
2023-05-19T08:18:35.630Z,3.00
2023-05-19T08:20:37.694Z,2.60
2023-05-19T08:22:39.768Z,2.80
2023-05-19T08:24:43.250Z,2.47
2023-05-19T08:26:45.613Z,2.30
2023-05-19T08:28:48.044Z,2.40
2023-05-19T08:30:52.240Z,2.80
2023-05-19T08:32:54.366Z,2.30
2023-05-19T08:34:56.527Z,2.27
2023-05-19T08:36:59.744Z,2.50
2023-05-19T08:39:02.079Z,2.07
2023-05-19T08:41:04.480Z,2.00
2023-05-19T08:43:07.349Z,2.20
2023-05-19T08:45:09.727Z,2.57
2023-05-19T08:47:14.647Z,2.20
2023-05-19T08:49:19.608Z,2.53
2023-05-19T08:51:31.291Z,2.83
2023-05-19T08:53:37.876Z,2.80
2023-05-19T08:56:11.427Z,2.00
2023-05-19T08:58:13.765Z,2.93
2023-05-19T09:00:16.966Z,2.20
2023-05-19T09:02:19.908Z,1.90
2023-05-19T09:04:22.288Z,2.73
2023-05-19T09:06:25.756Z,1.90
2023-05-19T09:08:27.779Z,2.40
2023-05-19T09:10:29.828Z,2.00
2023-05-19T09:12:32.020Z,2.30
2023-05-19T09:14:34.829Z,2.37
2023-05-19T09:16:37.205Z,2.00
2023-05-19T09:18:42.956Z,2.10
2023-05-19T09:20:46.464Z,2.10
2023-05-19T09:22:48.743Z,2.40
2023-05-19T09:24:51.613Z,2.27
2023-05-19T09:26:57.951Z,2.17
2023-05-19T09:29:02.384Z,2.27
2023-05-19T09:31:11.560Z,2.03
2023-05-19T09:33:19.701Z,2.20
2023-05-19T09:35:21.918Z,1.90
2023-05-19T09:37:24.679Z,2.20
2023-05-19T09:39:28.712Z,1.53
2023-05-19T09:41:31.126Z,1.73
2023-05-19T09:43:34.286Z,1.60
2023-05-19T09:45:36.657Z,2.67
2023-05-19T09:47:41.160Z,1.80
2023-05-19T09:49:46.877Z,2.00
2023-05-19T09:51:56.668Z,1.80
2023-05-19T09:53:59.540Z,1.90
2023-05-19T09:56:03.583Z,2.23
2023-05-19T09:58:07.150Z,2.17
2023-05-19T10:00:19.600Z,2.07
2023-05-19T10:02:24.485Z,1.93
2023-05-19T10:04:28.555Z,1.90
2023-05-19T10:06:31.115Z,1.90
2023-05-19T10:08:34.307Z,2.30
2023-05-19T10:10:39.870Z,1.47
2023-05-19T10:12:42.485Z,1.43
2023-05-19T10:14:44.907Z,2.57
2023-05-19T10:16:49.869Z,2.10
2023-05-19T10:18:53.244Z,1.97
2023-05-19T10:20:57.862Z,3.40
2023-05-19T10:23:00.745Z,2.37
2023-05-19T10:25:02.953Z,1.97
2023-05-19T10:27:11.843Z,2.20
2023-05-19T10:29:17.247Z,1.97
2023-05-19T10:31:20.875Z,2.20
2023-05-19T10:33:34.402Z,1.93
2023-05-19T10:35:55.055Z,2.00
2023-05-19T10:38:06.137Z,1.90
2023-05-19T10:40:13.742Z,3.07
2023-05-19T10:42:18.136Z,2.07
2023-05-19T10:44:47.945Z,2.00
2023-05-19T10:46:50.639Z,1.90
2023-05-19T10:48:53.326Z,1.90
2023-05-19T10:50:56.683Z,2.07
2023-05-19T10:53:00.200Z,2.10
2023-05-19T10:55:02.451Z,1.93
2023-05-19T10:57:04.802Z,1.90
2023-05-19T10:59:08.039Z,2.00
2023-05-19T11:01:14.333Z,1.93
2023-05-19T11:03:18.653Z,1.83
2023-05-19T11:05:28.632Z,1.80
2023-05-19T11:07:30.945Z,2.00
2023-05-19T11:09:41.046Z,1.80
2023-05-19T11:11:51.254Z,1.60
2023-05-19T11:13:56.978Z,1.70
2023-05-19T11:16:01.284Z,2.13
2023-05-19T11:18:04.848Z,2.00
2023-05-19T11:20:11.378Z,2.30
2023-05-19T11:22:14.238Z,1.57
2023-05-19T11:24:45.866Z,1.80
2023-05-19T11:26:48.508Z,1.70
2023-05-19T11:28:52.072Z,1.70
2023-05-19T11:30:55.219Z,1.90
2023-05-19T11:32:57.574Z,1.70
2023-05-19T11:35:00.926Z,2.07
2023-05-19T11:37:03.198Z,1.93
2023-05-19T11:39:06.744Z,1.77
2023-05-19T11:41:09.006Z,1.97
2023-05-19T11:43:11.367Z,2.20
2023-05-19T11:45:13.641Z,1.93
2023-05-19T11:47:17.000Z,1.90
2023-05-19T11:49:19.344Z,2.13
2023-05-19T11:51:22.149Z,1.70
2023-05-19T11:53:24.754Z,2.20
2023-05-19T11:55:27.014Z,2.17
2023-05-19T11:57:29.250Z,1.90
2023-05-19T11:59:35.480Z,2.00
2023-05-19T12:01:37.934Z,2.30
2023-05-19T12:03:40.569Z,2.07
2023-05-19T12:05:49.158Z,1.90
2023-05-19T12:07:52.474Z,2.13
2023-05-19T12:09:55.694Z,1.50
2023-05-19T12:11:58.473Z,2.13
2023-05-19T12:14:01.708Z,2.00
2023-05-19T12:16:04.467Z,2.10
2023-05-19T12:18:07.340Z,2.00
2023-05-19T12:20:10.702Z,1.63
2023-05-19T12:22:13.574Z,1.80
2023-05-19T12:24:15.841Z,2.50
2023-05-19T12:26:20.064Z,2.07
2023-05-19T12:28:22.285Z,2.13
2023-05-19T12:30:29.053Z,1.87
2023-05-19T12:32:34.350Z,1.60
2023-05-19T12:34:38.280Z,1.97
2023-05-19T12:36:41.513Z,1.80
2023-05-19T12:38:44.191Z,2.03
2023-05-19T12:40:46.410Z,1.93
2023-05-19T12:42:51.968Z,1.80
2023-05-19T12:44:54.788Z,2.07
2023-05-19T12:47:00.589Z,1.77
2023-05-19T12:49:02.827Z,1.73
2023-05-19T12:51:05.668Z,1.97
2023-05-19T12:53:12.181Z,2.07
2023-05-19T12:55:16.378Z,1.63
2023-05-19T12:57:20.809Z,1.70
2023-05-19T12:59:37.243Z,2.00
2023-05-19T13:01:40.861Z,1.80
2023-05-19T13:03:43.457Z,1.87
2023-05-19T13:05:47.638Z,1.80
2023-05-19T13:08:09.315Z,2.07
2023-05-19T13:10:12.097Z,2.13
2023-05-19T13:12:14.368Z,2.10
2023-05-19T13:14:18.711Z,1.97
2023-05-19T13:16:20.957Z,2.40
2023-05-19T13:18:23.309Z,2.10
2023-05-19T13:20:28.260Z,2.20
2023-05-19T13:22:31.108Z,1.80
2023-05-19T13:24:33.508Z,2.00
2023-05-19T13:26:35.805Z,1.80
2023-05-19T13:28:38.108Z,1.70
2023-05-19T13:30:41.702Z,1.73
2023-05-19T13:32:44.798Z,2.17
2023-05-19T13:34:47.041Z,2.03
2023-05-19T13:36:49.361Z,2.20
2023-05-19T13:38:52.618Z,2.10
2023-05-19T13:40:54.860Z,1.90
2023-05-19T13:42:57.088Z,2.07
2023-05-19T13:44:59.287Z,2.20
2023-05-19T13:47:01.581Z,2.03
2023-05-19T13:49:03.849Z,1.90
2023-05-19T13:51:06.059Z,2.10
2023-05-19T13:53:08.527Z,1.90
2023-05-19T13:55:10.993Z,2.10
2023-05-19T13:57:13.212Z,2.20
2023-05-19T13:59:17.301Z,2.00
2023-05-19T14:01:19.575Z,2.17
2023-05-19T14:03:21.948Z,2.20
2023-05-19T14:05:24.287Z,2.13
2023-05-19T14:07:27.212Z,1.90
2023-05-19T14:09:29.932Z,2.80
2023-05-19T14:11:32.520Z,1.97
2023-05-19T14:13:37.937Z,2.37
2023-05-19T14:15:43.364Z,2.27
2023-05-19T14:17:45.689Z,2.03
2023-05-19T14:19:47.955Z,2.30
2023-05-19T14:21:50.833Z,2.07
2023-05-19T14:23:53.082Z,1.87
2023-05-19T14:25:55.412Z,2.30
2023-05-19T14:27:57.627Z,2.33
2023-05-19T14:29:59.924Z,2.30
2023-05-19T14:32:03.342Z,3.17
2023-05-19T14:34:06.231Z,2.40
2023-05-19T14:36:09.473Z,2.30
2023-05-19T14:38:11.665Z,2.27
2023-05-19T14:40:13.968Z,1.73
2023-05-19T14:42:16.153Z,2.17
2023-05-19T14:44:18.727Z,2.30
2023-05-19T14:46:20.949Z,2.27
2023-05-19T14:48:23.417Z,2.37
2023-05-19T14:50:27.316Z,2.10
2023-05-19T14:52:30.775Z,2.30
2023-05-19T14:54:33.888Z,2.00
2023-05-19T14:56:36.162Z,2.13
2023-05-19T14:58:38.331Z,2.47
2023-05-19T15:00:41.366Z,2.47
2023-05-19T15:02:43.910Z,2.40
2023-05-19T15:04:46.206Z,2.13
2023-05-19T15:06:58.084Z,2.40
2023-05-19T15:09:14.498Z,2.20
2023-05-19T15:11:16.772Z,2.70
2023-05-19T15:13:19.159Z,2.53
2023-05-19T15:15:21.488Z,2.50
2023-05-19T15:17:23.721Z,2.03
2023-05-19T15:19:26.391Z,2.40
2023-05-19T15:21:28.809Z,2.13
2023-05-19T15:23:31.030Z,2.60
2023-05-19T15:25:33.210Z,2.10
2023-05-19T15:27:38.942Z,2.30
2023-05-19T15:29:41.298Z,2.00
2023-05-19T15:31:43.725Z,2.50
2023-05-19T15:33:46.153Z,2.23
2023-05-19T15:35:51.678Z,2.77
2023-05-19T15:37:53.969Z,1.77
2023-05-19T15:39:56.194Z,2.30
2023-05-19T15:41:58.374Z,2.07
2023-05-19T15:44:00.754Z,2.17
2023-05-19T15:46:05.085Z,2.43
2023-05-19T15:48:07.801Z,2.40
2023-05-19T15:50:10.361Z,2.50
2023-05-19T15:52:12.549Z,2.40
2023-05-19T15:54:14.762Z,2.40
2023-05-19T15:56:17.039Z,2.07
2023-05-19T15:58:19.332Z,2.77
2023-05-19T16:00:21.734Z,2.50
2023-05-19T16:02:24.140Z,2.20
2023-05-19T16:04:26.415Z,2.60
2023-05-19T16:06:28.705Z,2.60
2023-05-19T16:08:31.281Z,2.70
2023-05-19T16:10:33.829Z,2.50
2023-05-19T16:12:37.036Z,2.57
2023-05-19T16:14:39.241Z,2.80
2023-05-19T16:16:41.538Z,2.40
2023-05-19T16:18:44.285Z,2.33
2023-05-19T16:20:46.567Z,2.27
2023-05-19T16:22:48.934Z,2.70
2023-05-19T16:24:52.262Z,2.63
2023-05-19T16:26:54.561Z,2.97
2023-05-19T16:28:56.812Z,2.93
2023-05-19T16:31:00.231Z,2.47
2023-05-19T16:33:02.592Z,2.73
2023-05-19T16:35:05.460Z,2.93
2023-05-19T16:37:07.746Z,2.40
2023-05-19T16:39:10.001Z,3.13
2023-05-19T16:41:12.326Z,2.53
2023-05-19T16:43:14.718Z,1.97
2023-05-19T16:45:17.573Z,2.77
2023-05-19T16:47:20.177Z,2.50
2023-05-19T16:49:22.364Z,2.40
2023-05-19T16:51:24.604Z,2.33
2023-05-19T16:53:27.378Z,2.60
2023-05-19T16:55:29.617Z,2.30
2023-05-19T16:57:31.790Z,2.90
2023-05-19T16:59:33.986Z,2.50
2023-05-19T17:01:36.226Z,3.20
2023-05-19T17:03:38.491Z,2.60
2023-05-19T17:05:42.004Z,6.43
2023-05-19T17:07:44.259Z,2.47
2023-05-19T17:09:46.633Z,4.10
2023-05-19T17:11:48.893Z,2.80
2023-05-19T17:13:51.437Z,2.50
2023-05-19T17:15:53.764Z,2.57
2023-05-19T17:17:56.022Z,2.57
2023-05-19T17:19:58.332Z,2.00
2023-05-19T17:22:00.594Z,2.00
2023-05-19T17:24:03.354Z,2.60
2023-05-19T17:26:06.258Z,2.33
2023-05-19T17:28:08.558Z,1.97
2023-05-19T17:30:11.648Z,2.23
2023-05-19T17:32:13.939Z,3.87
2023-05-19T17:34:16.199Z,2.43
2023-05-19T17:36:18.842Z,2.80
2023-05-19T17:38:21.245Z,2.50
2023-05-19T17:40:23.505Z,2.90
2023-05-19T17:42:25.731Z,3.57
2023-05-19T17:44:28.185Z,3.23
2023-05-19T17:46:34.631Z,2.40
2023-05-19T17:48:36.973Z,2.23
2023-05-19T17:50:39.315Z,2.30
2023-05-19T17:52:41.831Z,2.60
2023-05-19T17:54:44.349Z,2.97
2023-05-19T17:56:46.924Z,2.73
2023-05-19T17:58:49.984Z,1.97
2023-05-19T18:00:52.986Z,2.43
2023-05-19T18:02:57.117Z,2.40
2023-05-19T18:05:00.329Z,2.20
2023-05-19T18:07:05.533Z,2.20
2023-05-19T18:09:09.148Z,2.20
2023-05-19T18:11:16.138Z,2.43
2023-05-19T18:13:19.396Z,2.50
2023-05-19T18:15:22.051Z,2.37
2023-05-19T18:17:24.924Z,2.40
2023-05-19T18:19:27.996Z,2.60
2023-05-19T18:21:31.505Z,2.43
2023-05-19T18:23:34.211Z,2.00
2023-05-19T18:25:37.017Z,2.70
2023-05-19T18:27:43.536Z,2.07
2023-05-19T18:29:46.267Z,2.43
2023-05-19T18:31:48.951Z,2.30
2023-05-19T18:33:51.393Z,2.43
2023-05-19T18:35:54.136Z,2.30
2023-05-19T18:37:57.449Z,2.57
2023-05-19T18:40:00.763Z,2.47
2023-05-19T18:42:03.017Z,2.70
2023-05-19T18:44:07.980Z,2.90
2023-05-19T18:46:10.738Z,2.93
2023-05-19T18:48:13.556Z,2.57
2023-05-19T18:50:16.585Z,2.13
2023-05-19T18:52:20.000Z,2.70
2023-05-19T18:54:22.499Z,2.63
2023-05-19T18:56:28.078Z,2.50
2023-05-19T18:58:30.477Z,2.40
2023-05-19T19:00:33.314Z,2.80
2023-05-19T19:02:35.802Z,2.13
2023-05-19T19:04:38.194Z,2.47
2023-05-19T19:06:41.917Z,2.80
2023-05-19T19:08:44.431Z,2.50
2023-05-19T19:10:46.611Z,3.83
2023-05-19T19:12:48.856Z,2.60
2023-05-19T19:14:51.230Z,2.67
2023-05-19T19:16:53.606Z,2.67
2023-05-19T19:18:55.984Z,2.60
2023-05-19T19:20:59.612Z,3.17
2023-05-19T19:23:05.093Z,2.67
2023-05-19T19:25:07.632Z,2.73
2023-05-19T19:27:10.124Z,2.57
2023-05-19T19:29:12.349Z,2.33
2023-05-19T19:31:14.761Z,2.67
2023-05-19T19:33:17.051Z,2.90
2023-05-19T19:35:19.323Z,2.27
2023-05-19T19:37:21.510Z,2.63
2023-05-19T19:39:23.678Z,3.00
2023-05-19T19:41:28.112Z,2.60
2023-05-19T19:43:30.386Z,3.27
2023-05-19T19:45:34.744Z,2.70
2023-05-19T19:47:37.271Z,2.70
2023-05-19T19:49:39.647Z,2.10
2023-05-19T19:51:42.483Z,1.90
2023-05-19T19:53:44.660Z,2.70
2023-05-19T19:55:58.377Z,2.77
2023-05-19T19:58:00.609Z,2.90
2023-05-19T20:00:08.302Z,2.57
2023-05-19T20:02:11.151Z,2.80
2023-05-19T20:04:13.674Z,3.00
2023-05-19T20:06:16.605Z,2.93
2023-05-19T20:08:20.117Z,2.33
2023-05-19T20:10:22.392Z,2.80
2023-05-19T20:12:24.972Z,2.50
2023-05-19T20:14:27.201Z,2.70
2023-05-19T20:16:29.527Z,2.73
2023-05-19T20:18:31.810Z,2.80
2023-05-19T20:20:34.168Z,2.67
2023-05-19T20:22:37.052Z,2.80
2023-05-19T20:24:39.313Z,2.63
2023-05-19T20:26:41.796Z,2.70
2023-05-19T20:28:44.120Z,2.90
2023-05-19T20:30:46.365Z,2.80
2023-05-19T20:32:48.628Z,2.90
2023-05-19T20:34:50.904Z,3.17
2023-05-19T20:36:53.076Z,2.70
2023-05-19T20:38:55.874Z,2.37
2023-05-19T20:40:58.100Z,3.17
2023-05-19T20:43:00.619Z,2.80
2023-05-19T20:45:03.716Z,2.60
2023-05-19T20:47:08.220Z,3.33
2023-05-19T20:49:10.557Z,3.23
2023-05-19T20:51:12.795Z,2.77
2023-05-19T20:53:20.079Z,3.03
2023-05-19T20:58:03.328Z,2.97
2023-05-19T21:00:06.254Z,3.10
2023-05-19T21:02:08.613Z,2.97
2023-05-19T21:04:11.338Z,3.50
2023-05-19T21:06:13.634Z,2.73
2023-05-19T21:08:16.118Z,2.80
2023-05-19T21:10:18.493Z,2.30
2023-05-19T21:12:25.084Z,2.80
2023-05-19T21:14:27.280Z,3.40
2023-05-19T21:16:30.643Z,2.93
2023-05-19T21:18:32.897Z,2.60
2023-05-19T21:20:35.446Z,2.63
2023-05-19T21:22:37.935Z,3.30
2023-05-19T21:24:40.104Z,2.80
2023-05-19T21:26:43.210Z,3.10
2023-05-19T21:28:45.547Z,3.10
2023-05-19T21:30:49.457Z,3.60
2023-05-19T21:32:51.788Z,2.63
2023-05-19T21:34:54.032Z,3.30
2023-05-19T21:36:56.635Z,3.10
2023-05-19T21:38:58.989Z,3.20
2023-05-19T21:41:01.205Z,2.80
2023-05-19T21:43:03.608Z,3.00
2023-05-19T21:45:06.647Z,2.63
2023-05-19T21:47:08.841Z,2.67
2023-05-19T21:49:11.077Z,3.00
2023-05-19T21:51:13.441Z,2.80
2023-05-19T21:53:15.660Z,3.33
2023-05-19T21:55:17.798Z,4.90
2023-05-19T21:57:20.025Z,3.40
2023-05-19T21:59:24.725Z,3.27
2023-05-19T22:01:27.819Z,3.00
2023-05-19T22:03:30.238Z,3.30
2023-05-19T22:05:35.105Z,3.13
2023-05-19T22:07:37.905Z,3.27
2023-05-19T22:09:40.198Z,3.10
2023-05-19T22:11:42.563Z,4.37
2023-05-19T22:13:44.995Z,3.60
2023-05-19T22:15:47.259Z,4.40
2023-05-19T22:17:49.603Z,3.03
2023-05-19T22:19:52.073Z,3.90
2023-05-19T22:22:01.940Z,3.40
2023-05-19T22:24:08.173Z,3.13
2023-05-19T22:26:10.553Z,3.50
2023-05-19T22:28:13.084Z,3.70
2023-05-19T22:30:15.757Z,3.80
2023-05-19T22:32:19.411Z,4.00
2023-05-19T22:34:21.604Z,3.13
2023-05-19T22:36:23.675Z,4.20
2023-05-19T22:38:25.776Z,4.07
2023-05-19T22:40:27.991Z,3.40
2023-05-19T22:42:30.017Z,3.70
2023-05-19T22:44:32.098Z,4.33
2023-05-19T22:46:35.394Z,3.33
2023-05-19T22:48:37.454Z,3.93
2023-05-19T22:50:39.869Z,4.10
2023-05-19T22:52:42.114Z,4.03
2023-05-19T22:54:44.650Z,4.00
2023-05-19T22:56:48.812Z,3.90
2023-05-19T22:58:51.112Z,3.57
2023-05-19T23:00:53.236Z,4.10
2023-05-19T23:02:55.493Z,4.20
2023-05-19T23:04:57.544Z,4.50
2023-05-19T23:07:00.002Z,3.50
2023-05-19T23:09:04.587Z,4.03
2023-05-19T23:11:07.345Z,4.90
2023-05-19T23:13:10.235Z,4.20
2023-05-19T23:15:12.391Z,4.03
2023-05-19T23:17:14.530Z,3.07
2023-05-19T23:19:17.854Z,4.13
2023-05-19T23:21:20.452Z,4.40
2023-05-19T23:23:22.553Z,3.83
2023-05-19T23:25:24.723Z,3.67
2023-05-19T23:27:26.810Z,4.47
2023-05-19T23:29:29.073Z,4.40
2023-05-19T23:31:31.229Z,4.00
2023-05-19T23:33:37.008Z,4.50
2023-05-19T23:35:39.636Z,4.53
2023-05-19T23:37:41.835Z,4.03
2023-05-19T23:39:43.939Z,3.90
2023-05-19T23:41:46.127Z,3.97
2023-05-19T23:43:48.174Z,4.10
2023-05-19T23:45:50.458Z,5.00
2023-05-19T23:47:52.647Z,4.50
2023-05-19T23:49:54.727Z,4.60
2023-05-19T23:51:56.727Z,4.37
2023-05-19T23:53:58.945Z,4.40
2023-05-19T23:56:01.141Z,3.77
2023-05-19T23:58:03.355Z,3.77
